createdAt,value
2022-12-27T00:01:12.644Z,42.90
2022-12-27T00:03:41.318Z,42.17
2022-12-27T00:06:12.902Z,44.72
2022-12-27T00:08:41.000Z,46.40
2022-12-27T00:11:10.412Z,46.90
2022-12-27T00:13:38.368Z,47.03
2022-12-27T00:16:07.405Z,49.20
2022-12-27T00:18:35.523Z,46.42
2022-12-27T00:21:04.694Z,45.72
2022-12-27T00:23:36.304Z,43.45
2022-12-27T00:26:05.604Z,41.13
2022-12-27T00:28:34.620Z,38.50
2022-12-27T00:31:02.706Z,41.67
2022-12-27T00:33:33.381Z,43.78
2022-12-27T00:36:03.120Z,45.17
2022-12-27T00:38:31.091Z,45.10
2022-12-27T00:41:00.557Z,47.72
2022-12-27T00:43:28.786Z,46.67
2022-12-27T00:45:56.822Z,44.40
2022-12-27T00:48:25.141Z,46.28
2022-12-27T00:50:59.463Z,47.60
2022-12-27T00:53:27.561Z,45.92
2022-12-27T00:55:55.931Z,44.65
2022-12-27T00:58:25.632Z,42.40
2022-12-27T01:00:54.010Z,40.05
2022-12-27T01:03:22.208Z,44.42
2022-12-27T01:05:50.436Z,38.88
2022-12-27T01:08:18.400Z,40.13
2022-12-27T01:10:46.435Z,41.30
2022-12-27T01:13:14.492Z,42.88
2022-12-27T01:15:44.423Z,39.67
2022-12-27T01:18:12.410Z,39.55
2022-12-27T01:20:40.346Z,39.42
2022-12-27T01:23:08.381Z,39.83
2022-12-27T01:25:36.339Z,38.35
2022-12-27T01:28:04.569Z,39.88
2022-12-27T01:30:32.945Z,40.90
2022-12-27T01:33:02.428Z,44.05
2022-12-27T01:35:30.426Z,38.50
2022-12-27T01:37:58.496Z,39.92
2022-12-27T01:40:27.063Z,39.45
2022-12-27T01:42:54.918Z,40.30
2022-12-27T01:45:23.905Z,43.40
2022-12-27T01:47:58.109Z,42.15
2022-12-27T01:50:35.000Z,41.40
2022-12-27T01:53:12.161Z,38.83
2022-12-27T01:55:47.730Z,42.75
2022-12-27T01:58:20.055Z,39.67
2022-12-27T02:00:49.829Z,47.38
2022-12-27T02:03:23.560Z,46.88
2022-12-27T02:05:53.280Z,48.70
2022-12-27T02:08:34.868Z,45.17
2022-12-27T02:11:04.257Z,42.42
2022-12-27T02:13:35.826Z,40.33
2022-12-27T02:16:03.807Z,43.78
2022-12-27T02:18:31.996Z,46.25
2022-12-27T02:21:31.137Z,45.50
2022-12-27T02:24:33.288Z,40.42
2022-12-27T02:27:07.492Z,46.55
2022-12-27T02:29:56.798Z,42.17
2022-12-27T02:32:30.566Z,39.70
2022-12-27T02:35:09.780Z,44.58
2022-12-27T02:37:43.191Z,44.05
2022-12-27T02:40:30.225Z,42.78
2022-12-27T02:43:15.822Z,43.63
2022-12-27T02:46:07.319Z,44.63
2022-12-27T02:48:52.387Z,42.35
2022-12-27T02:51:50.364Z,39.30
2022-12-27T02:54:35.926Z,43.42
2022-12-27T02:57:16.505Z,41.60
2022-12-27T03:00:23.673Z,42.10
2022-12-27T03:03:23.752Z,42.50
2022-12-27T03:06:41.332Z,41.58
2022-12-27T03:10:00.475Z,42.72
2022-12-27T03:13:04.177Z,40.67
2022-12-27T03:15:57.360Z,42.53
2022-12-27T03:18:42.723Z,43.70
2022-12-27T03:21:30.110Z,42.15
2022-12-27T03:24:17.856Z,40.33
2022-12-27T03:26:48.629Z,41.50
2022-12-27T03:29:38.424Z,44.60
2022-12-27T03:32:34.087Z,45.55
2022-12-27T03:35:09.137Z,43.08
2022-12-27T03:40:38.916Z,43.97
2022-12-27T03:43:12.006Z,51.97
2022-12-27T03:46:17.006Z,43.17
2022-12-27T03:49:12.332Z,50.63
2022-12-27T03:51:45.967Z,50.45
2022-12-27T03:54:26.336Z,48.05
2022-12-27T03:57:00.926Z,70.28
2022-12-27T03:59:29.506Z,47.80
2022-12-27T04:01:57.863Z,47.50
2022-12-27T04:04:25.964Z,46.55
2022-12-27T04:06:55.419Z,40.83
2022-12-27T04:09:41.325Z,39.65
2022-12-27T04:12:26.708Z,39.70
2022-12-27T04:17:56.819Z,38.38
2022-12-27T04:23:29.276Z,37.20
2022-12-27T04:26:14.781Z,39.58
2022-12-27T04:29:00.055Z,37.85
2022-12-27T04:31:45.331Z,40.92
2022-12-27T04:34:30.319Z,38.97
2022-12-27T04:36:58.451Z,38.30
2022-12-27T04:39:27.905Z,38.45
2022-12-27T04:42:13.306Z,38.78
2022-12-27T04:47:44.138Z,38.00
2022-12-27T04:50:45.425Z,41.13
2022-12-27T04:53:32.357Z,35.88
2022-12-27T04:56:02.580Z,37.17
2022-12-27T04:58:30.756Z,37.42
2022-12-27T05:01:19.971Z,36.15
2022-12-27T05:03:51.765Z,37.00
2022-12-27T05:06:20.085Z,36.70
2022-12-27T05:09:05.803Z,39.42
2022-12-27T05:12:03.973Z,41.40
2022-12-27T05:14:31.907Z,38.30
2022-12-27T05:17:00.208Z,40.15
2022-12-27T05:19:28.324Z,39.03
2022-12-27T05:22:19.405Z,37.80
2022-12-27T05:25:13.276Z,36.63
2022-12-27T05:27:42.726Z,33.08
2022-12-27T05:30:11.756Z,33.38
2022-12-27T05:32:39.767Z,34.80
2022-12-27T05:35:08.214Z,34.95
2022-12-27T05:37:36.291Z,34.95
2022-12-27T05:40:04.602Z,34.63
2022-12-27T05:42:32.833Z,30.50
2022-12-27T05:45:02.218Z,34.80
2022-12-27T05:47:30.297Z,34.35
2022-12-27T05:49:58.323Z,32.97
2022-12-27T05:52:26.424Z,35.85
2022-12-27T05:54:54.449Z,37.47
2022-12-27T05:57:22.596Z,37.22
2022-12-27T05:59:50.597Z,36.83
2022-12-27T06:02:20.375Z,35.90
2022-12-27T06:04:48.434Z,41.53
2022-12-27T06:07:16.492Z,42.95
2022-12-27T06:09:44.467Z,40.35
2022-12-27T06:12:12.374Z,38.03
2022-12-27T06:14:41.374Z,40.00
2022-12-27T06:17:09.349Z,40.53
2022-12-27T06:19:38.728Z,38.60
2022-12-27T06:22:06.690Z,38.17
2022-12-27T06:24:34.571Z,38.95
2022-12-27T06:27:02.760Z,38.85
2022-12-27T06:29:30.717Z,36.38
2022-12-27T06:31:58.721Z,34.17
2022-12-27T06:34:26.768Z,30.27
2022-12-27T06:36:56.264Z,29.30
2022-12-27T06:39:24.256Z,27.63
2022-12-27T06:41:55.258Z,26.73
2022-12-27T06:44:23.238Z,24.02
2022-12-27T06:46:51.232Z,23.10
2022-12-27T06:49:19.320Z,23.98
2022-12-27T06:51:52.585Z,24.45
2022-12-27T06:54:25.495Z,23.02
2022-12-27T06:56:53.507Z,23.65
2022-12-27T06:59:21.456Z,24.27
2022-12-27T07:01:49.564Z,23.65
2022-12-27T07:04:17.615Z,24.95
2022-12-27T07:06:45.670Z,25.48
2022-12-27T07:09:13.766Z,25.90
2022-12-27T07:11:43.318Z,24.45
2022-12-27T07:14:11.746Z,23.85
2022-12-27T07:16:39.753Z,24.38
2022-12-27T07:19:07.916Z,22.30
2022-12-27T07:21:35.907Z,22.77
2022-12-27T07:24:04.059Z,21.55
2022-12-27T07:26:32.080Z,19.70
2022-12-27T07:29:02.995Z,19.40
2022-12-27T07:31:34.012Z,19.13
2022-12-27T07:34:04.285Z,20.20
2022-12-27T07:36:36.814Z,20.02
2022-12-27T07:39:05.847Z,19.00
2022-12-27T07:41:33.968Z,19.88
2022-12-27T07:44:04.055Z,20.52
2022-12-27T07:46:32.948Z,20.95
2022-12-27T07:49:01.586Z,22.02
2022-12-27T07:51:30.449Z,24.45
2022-12-27T07:53:58.385Z,24.80
2022-12-27T07:56:29.232Z,26.98
2022-12-27T07:58:59.085Z,24.42
2022-12-27T08:01:30.512Z,25.05
2022-12-27T08:03:58.625Z,26.38
2022-12-27T08:06:29.569Z,24.65
2022-12-27T08:09:00.195Z,25.15
2022-12-27T08:11:28.218Z,24.02
2022-12-27T08:13:56.118Z,23.23
2022-12-27T08:16:26.485Z,23.25
2022-12-27T08:18:56.072Z,24.20
2022-12-27T08:21:24.471Z,25.95
2022-12-27T08:23:52.433Z,24.00
2022-12-27T08:26:20.345Z,24.88
2022-12-27T08:28:48.282Z,25.13
2022-12-27T08:31:16.270Z,26.42
2022-12-27T08:33:44.266Z,27.10
2022-12-27T08:36:45.190Z,26.70
2022-12-27T08:39:02.997Z,26.50
2022-12-27T08:41:30.984Z,26.88
2022-12-27T08:43:58.961Z,27.33
2022-12-27T08:46:27.079Z,26.80
2022-12-27T08:48:55.197Z,24.60
2022-12-27T08:51:33.085Z,25.38
2022-12-27T08:54:06.883Z,25.98
2022-12-27T08:56:34.891Z,24.80
2022-12-27T08:59:04.165Z,25.35
2022-12-27T09:01:32.716Z,25.48
2022-12-27T09:04:00.730Z,24.55
2022-12-27T09:06:30.033Z,23.38
2022-12-27T09:08:58.156Z,22.17
2022-12-27T09:11:28.156Z,22.15
2022-12-27T09:13:56.541Z,23.83
2022-12-27T09:16:27.559Z,22.42
2022-12-27T09:18:56.825Z,21.58
2022-12-27T09:21:31.701Z,21.00
2022-12-27T09:26:29.519Z,20.27
2022-12-27T09:28:59.404Z,19.35
2022-12-27T09:31:28.290Z,20.70
2022-12-27T09:33:56.635Z,19.95
2022-12-27T09:36:26.553Z,22.50
2022-12-27T09:38:57.335Z,20.20
2022-12-27T09:44:34.161Z,20.10
2022-12-27T09:47:07.091Z,19.83
2022-12-27T09:49:39.295Z,20.27
2022-12-27T09:52:13.306Z,20.75
2022-12-27T09:54:52.915Z,21.83
2022-12-27T09:57:26.251Z,20.92
2022-12-27T09:59:59.692Z,16.73
2022-12-27T10:02:29.484Z,18.33
2022-12-27T10:08:07.233Z,17.27
2022-12-27T10:10:44.191Z,18.17
2022-12-27T10:13:25.973Z,20.67
2022-12-27T10:16:10.532Z,20.48
2022-12-27T10:18:50.054Z,16.60
2022-12-27T10:21:22.535Z,16.27
2022-12-27T10:23:59.182Z,14.98
2022-12-27T10:26:28.878Z,16.13
2022-12-27T10:29:02.081Z,17.02
2022-12-27T10:31:32.970Z,13.57
2022-12-27T10:34:03.986Z,13.05
2022-12-27T10:36:35.581Z,13.32
2022-12-27T10:39:05.057Z,11.75
2022-12-27T10:41:50.284Z,13.60
2022-12-27T10:46:52.469Z,9.80
2022-12-27T10:49:28.496Z,10.18
2022-12-27T10:52:00.530Z,9.63
2022-12-27T10:54:30.494Z,10.65
2022-12-27T10:57:19.869Z,11.55
2022-12-27T11:00:07.897Z,9.43
2022-12-27T11:02:36.274Z,10.35
2022-12-27T11:05:04.541Z,8.52
2022-12-27T11:07:34.654Z,8.25
2022-12-27T11:10:10.133Z,10.05
2022-12-27T11:12:40.057Z,13.85
2022-12-27T11:15:18.974Z,9.90
2022-12-27T11:17:50.195Z,10.38
2022-12-27T11:20:24.344Z,10.63
2022-12-27T11:22:56.840Z,9.02
2022-12-27T11:25:27.791Z,7.97
2022-12-27T11:28:07.990Z,10.38
2022-12-27T11:30:40.615Z,10.52
2022-12-27T11:33:24.653Z,9.57
2022-12-27T11:35:55.707Z,7.95
2022-12-27T11:38:27.005Z,5.80
2022-12-27T11:41:01.871Z,6.88
2022-12-27T11:43:37.072Z,10.07
2022-12-27T11:46:14.043Z,8.23
2022-12-27T11:48:46.890Z,5.45
2022-12-27T11:51:42.288Z,6.18
2022-12-27T11:54:30.013Z,5.63
2022-12-27T11:57:07.858Z,5.78
2022-12-27T11:59:54.352Z,5.95
2022-12-27T12:02:35.101Z,6.35
2022-12-27T12:05:27.294Z,4.70
2022-12-27T12:08:12.776Z,4.10
2022-12-27T12:10:51.575Z,3.20
2022-12-27T12:14:04.296Z,3.10
2022-12-27T12:16:58.223Z,3.10
2022-12-27T12:20:00.042Z,2.83
2022-12-27T12:22:43.319Z,3.17
2022-12-27T12:25:43.725Z,2.47
2022-12-27T12:28:58.584Z,4.25
2022-12-27T12:31:49.789Z,5.70
2022-12-27T12:34:42.493Z,3.90
2022-12-27T12:37:22.574Z,3.20
2022-12-27T12:40:08.264Z,4.60
2022-12-27T12:42:44.386Z,4.55
2022-12-27T12:45:33.086Z,3.15
2022-12-27T12:48:25.644Z,4.45
2022-12-27T12:51:19.627Z,4.13
2022-12-27T12:54:04.497Z,5.05
2022-12-27T12:56:59.357Z,3.88
2022-12-27T12:59:52.013Z,3.15
2022-12-27T13:02:42.435Z,3.53
2022-12-27T13:05:15.922Z,3.50
2022-12-27T13:08:00.160Z,3.03
2022-12-27T13:11:06.959Z,2.95
2022-12-27T13:13:45.283Z,3.10
2022-12-27T13:16:26.634Z,3.80
2022-12-27T13:19:06.836Z,2.50
2022-12-27T13:21:54.768Z,2.75
2022-12-27T13:24:32.448Z,3.17
2022-12-27T13:27:10.677Z,2.47
2022-12-27T13:30:06.376Z,3.45
2022-12-27T13:32:47.983Z,3.42
2022-12-27T13:35:31.405Z,3.10
2022-12-27T13:38:14.121Z,2.67
2022-12-27T13:41:08.507Z,3.28
2022-12-27T13:44:04.657Z,3.05
2022-12-27T13:46:49.096Z,2.40
2022-12-27T13:49:32.955Z,2.77
2022-12-27T13:52:13.819Z,3.20
2022-12-27T13:55:07.026Z,3.20
2022-12-27T13:58:14.832Z,2.33
2022-12-27T14:00:49.448Z,2.10
2022-12-27T14:03:59.199Z,2.33
2022-12-27T14:07:04.430Z,2.95
2022-12-27T14:09:49.401Z,3.27
2022-12-27T14:13:02.711Z,3.00
2022-12-27T14:15:49.666Z,4.13
2022-12-27T14:18:40.441Z,5.88
2022-12-27T14:21:21.752Z,4.25
2022-12-27T14:24:10.644Z,3.88
2022-12-27T14:27:20.420Z,4.40
2022-12-27T14:30:24.529Z,5.15
2022-12-27T14:33:32.230Z,4.20
2022-12-27T14:36:35.287Z,12.73
2022-12-27T14:39:39.325Z,5.10
2022-12-27T14:42:26.038Z,5.10
2022-12-27T14:45:22.584Z,5.10
2022-12-27T14:48:25.579Z,4.63
2022-12-27T14:51:58.825Z,4.80
2022-12-27T14:54:57.607Z,5.13
2022-12-27T14:57:37.260Z,4.45
2022-12-27T15:00:15.780Z,7.18
2022-12-27T15:02:58.363Z,5.57
2022-12-27T15:05:45.193Z,6.10
2022-12-27T15:08:43.063Z,3.83
2022-12-27T15:11:31.771Z,3.35
2022-12-27T15:14:17.623Z,3.08
2022-12-27T15:16:56.693Z,2.38
2022-12-27T15:19:41.232Z,3.05
2022-12-27T15:22:19.225Z,2.63
2022-12-27T15:24:57.684Z,2.60
2022-12-27T15:27:32.645Z,2.75
2022-12-27T15:32:57.793Z,2.17
2022-12-27T15:35:38.741Z,6.35
2022-12-27T15:38:11.781Z,3.75
2022-12-27T15:40:53.747Z,5.85
2022-12-27T15:43:40.155Z,2.72
2022-12-27T15:46:23.690Z,2.50
2022-12-27T15:49:13.905Z,2.30
2022-12-27T15:51:49.697Z,2.10
2022-12-27T15:54:40.025Z,2.85
2022-12-27T15:57:31.001Z,2.20
2022-12-27T16:00:14.786Z,2.75
2022-12-27T16:03:02.838Z,2.35
2022-12-27T16:05:52.405Z,1.70
2022-12-27T16:08:33.800Z,1.52
2022-12-27T16:11:03.778Z,2.40
2022-12-27T16:13:44.072Z,1.50
2022-12-27T16:16:57.770Z,1.92
2022-12-27T16:19:50.643Z,1.95
2022-12-27T16:22:33.916Z,3.90
2022-12-27T16:25:26.985Z,2.50
2022-12-27T16:28:02.094Z,3.05
2022-12-27T16:30:55.774Z,2.83
2022-12-27T16:33:33.675Z,2.47
2022-12-27T16:36:18.078Z,2.63
2022-12-27T16:38:49.630Z,2.33
2022-12-27T16:41:33.320Z,2.08
2022-12-27T16:44:15.278Z,2.33
2022-12-27T16:47:02.532Z,2.33
2022-12-27T16:49:56.448Z,2.22
2022-12-27T16:52:48.670Z,2.55
2022-12-27T16:55:30.718Z,3.75
2022-12-27T16:58:24.440Z,1.52
2022-12-27T17:00:53.649Z,2.22
2022-12-27T17:03:47.378Z,1.55
2022-12-27T17:06:56.101Z,1.80
2022-12-27T17:09:43.639Z,1.65
2022-12-27T17:12:24.400Z,2.00
2022-12-27T17:14:59.345Z,3.03
2022-12-27T17:20:01.014Z,2.20
2022-12-27T17:22:34.581Z,1.98
2022-12-27T17:25:05.395Z,2.80
2022-12-27T17:27:47.857Z,2.30
2022-12-27T17:30:20.816Z,2.38
2022-12-27T17:33:22.974Z,2.95
2022-12-27T17:36:14.598Z,4.68
2022-12-27T17:38:59.809Z,5.30
2022-12-27T17:41:57.078Z,4.82
2022-12-27T17:44:41.720Z,3.53
2022-12-27T17:47:28.810Z,3.50
2022-12-27T17:50:01.461Z,6.10
2022-12-27T17:52:55.232Z,5.03
2022-12-27T17:55:39.117Z,9.63
2022-12-27T17:58:11.253Z,3.85
2022-12-27T18:00:53.178Z,3.63
2022-12-27T18:03:22.380Z,3.88
2022-12-27T18:05:51.081Z,2.78
2022-12-27T18:08:26.213Z,2.70
2022-12-27T18:10:54.221Z,4.63
2022-12-27T18:13:27.106Z,4.05
2022-12-27T18:15:56.161Z,4.65
2022-12-27T18:18:27.910Z,3.97
2022-12-27T18:20:59.774Z,4.20
2022-12-27T18:23:28.312Z,6.30
2022-12-27T18:26:02.769Z,4.93
2022-12-27T18:28:34.305Z,5.93
2022-12-27T18:31:07.026Z,5.03
2022-12-27T18:33:39.080Z,6.35
2022-12-27T18:36:10.047Z,4.32
2022-12-27T18:38:42.605Z,4.53
2022-12-27T18:41:14.286Z,4.22
2022-12-27T18:43:47.462Z,4.10
2022-12-27T18:46:17.840Z,4.53
2022-12-27T18:48:46.263Z,6.53
2022-12-27T18:51:14.448Z,11.70
2022-12-27T18:53:45.659Z,13.30
2022-12-27T18:56:29.239Z,9.90
2022-12-27T18:59:04.340Z,9.27
2022-12-27T19:04:26.460Z,12.55
2022-12-27T19:06:59.621Z,9.98
2022-12-27T19:09:31.040Z,9.77
2022-12-27T19:12:01.431Z,15.05
2022-12-27T19:14:37.034Z,5.47
2022-12-27T19:17:10.631Z,10.43
2022-12-27T19:19:39.785Z,11.45
2022-12-27T19:22:34.090Z,6.80
2022-12-27T19:25:03.628Z,9.27
2022-12-27T19:27:31.650Z,27.13
2022-12-27T19:30:01.149Z,10.05
2022-12-27T19:32:33.683Z,12.13
2022-12-27T19:35:04.295Z,14.27
2022-12-27T19:37:33.690Z,9.07
2022-12-27T19:40:02.261Z,18.90
2022-12-27T19:42:32.083Z,9.07
2022-12-27T19:45:01.876Z,5.82
2022-12-27T19:47:29.808Z,9.23
2022-12-27T19:49:57.726Z,6.22
2022-12-27T19:52:28.483Z,9.18
2022-12-27T19:55:01.791Z,6.85
2022-12-27T19:57:29.911Z,5.30
2022-12-27T19:59:57.971Z,5.05
2022-12-27T20:02:27.693Z,21.08
2022-12-27T20:04:56.647Z,7.13
2022-12-27T20:07:26.530Z,9.48
2022-12-27T20:09:54.509Z,9.40
2022-12-27T20:12:22.534Z,9.13
2022-12-27T20:14:50.493Z,10.40
2022-12-27T20:17:18.419Z,6.90
2022-12-27T20:19:47.774Z,6.20
2022-12-27T20:22:15.715Z,9.98
2022-12-27T20:24:43.596Z,7.80
2022-12-27T20:27:11.584Z,5.05
2022-12-27T20:29:39.514Z,4.68
2022-12-27T20:32:07.633Z,4.25
2022-12-27T20:34:36.310Z,5.72
2022-12-27T20:37:05.882Z,25.38
2022-12-27T20:39:34.571Z,15.02
2022-12-27T20:42:02.458Z,18.58
2022-12-27T20:44:30.950Z,29.95
2022-12-27T20:46:58.822Z,13.60
2022-12-27T20:49:26.896Z,10.70
2022-12-27T20:51:54.807Z,9.32
2022-12-27T20:54:24.184Z,9.68
2022-12-27T20:56:52.177Z,11.27
2022-12-27T20:59:20.341Z,12.07
2022-12-27T21:01:53.037Z,8.90
2022-12-27T21:04:24.667Z,10.02
2022-12-27T21:06:52.738Z,11.07
2022-12-27T21:09:20.653Z,18.92
2022-12-27T21:11:52.079Z,24.35
2022-12-27T21:14:20.044Z,31.67
2022-12-27T21:16:48.060Z,21.67
2022-12-27T21:19:16.173Z,15.07
2022-12-27T21:21:44.738Z,16.42
2022-12-27T21:24:12.773Z,16.35
2022-12-27T21:26:41.308Z,17.70
2022-12-27T21:29:12.292Z,46.70
2022-12-27T21:31:40.337Z,110.38
2022-12-27T21:34:08.449Z,27.60
2022-12-27T21:36:38.414Z,20.50
2022-12-27T21:39:07.596Z,18.50
2022-12-27T21:41:37.073Z,19.10
2022-12-27T21:44:05.595Z,31.02
2022-12-27T21:46:37.102Z,34.13
2022-12-27T21:49:07.080Z,20.33
2022-12-27T21:51:37.093Z,11.25
2022-12-27T21:54:05.667Z,9.50
2022-12-27T21:56:33.891Z,12.50
2022-12-27T21:59:03.069Z,11.57
2022-12-27T22:01:49.648Z,13.00
2022-12-27T22:04:21.214Z,12.18
2022-12-27T22:06:49.279Z,12.52
2022-12-27T22:09:19.266Z,14.10
2022-12-27T22:11:47.929Z,21.27
2022-12-27T22:14:15.839Z,18.80
2022-12-27T22:16:43.712Z,23.15
2022-12-27T22:19:13.545Z,17.60
2022-12-27T22:21:44.904Z,24.38
2022-12-27T22:24:17.281Z,23.67
2022-12-27T22:26:45.300Z,19.02
2022-12-27T22:29:13.196Z,18.00
2022-12-27T22:31:42.828Z,16.80
2022-12-27T22:34:10.948Z,16.50
2022-12-27T22:36:38.946Z,14.65
2022-12-27T22:39:08.282Z,18.08
2022-12-27T22:41:37.511Z,16.83
2022-12-27T22:44:07.741Z,15.88
2022-12-27T22:47:15.334Z,15.65
2022-12-27T22:49:24.583Z,15.15
2022-12-27T22:51:52.761Z,15.75
2022-12-27T22:55:06.036Z,14.95
2022-12-27T22:57:10.129Z,20.60
2022-12-27T22:59:38.059Z,18.80
2022-12-27T23:02:06.201Z,19.30
2022-12-27T23:04:34.483Z,21.00
2022-12-27T23:07:02.543Z,21.27
2022-12-27T23:09:32.035Z,20.60
2022-12-27T23:12:00.084Z,21.63
2022-12-27T23:14:28.407Z,20.33
2022-12-27T23:16:56.344Z,20.77
2022-12-27T23:19:25.733Z,19.95
2022-12-27T23:21:53.667Z,24.30
2022-12-27T23:24:21.721Z,22.75
2022-12-27T23:26:51.443Z,24.05
2022-12-27T23:29:19.401Z,23.52
2022-12-27T23:31:54.671Z,19.80
2022-12-27T23:34:28.102Z,18.55
2022-12-27T23:36:57.123Z,20.33
2022-12-27T23:39:25.167Z,34.13
2022-12-27T23:41:54.852Z,36.25
2022-12-27T23:44:33.022Z,31.25
2022-12-27T23:47:03.797Z,28.33
2022-12-27T23:49:31.788Z,25.35
2022-12-27T23:51:59.851Z,25.23
2022-12-27T23:54:27.874Z,23.67
2022-12-27T23:56:57.293Z,22.75
2022-12-27T23:59:25.283Z,22.75
